createdAt,value
2022-08-26T00:01:54.656Z,22.89
2022-08-26T00:04:25.997Z,23.02
2022-08-26T00:06:56.917Z,23.23
2022-08-26T00:09:25.230Z,23.13
2022-08-26T00:11:54.273Z,22.77
2022-08-26T00:14:27.031Z,22.31
2022-08-26T00:16:57.047Z,22.61
2022-08-26T00:19:25.392Z,22.58
2022-08-26T00:21:52.549Z,22.79
2022-08-26T00:24:21.627Z,22.85
2022-08-26T00:26:48.993Z,22.65
2022-08-26T00:29:17.419Z,22.70
2022-08-26T00:31:45.308Z,22.65
2022-08-26T00:34:14.105Z,22.77
2022-08-26T00:36:42.740Z,22.81
2022-08-26T00:39:10.702Z,22.77
2022-08-26T00:41:39.779Z,22.79
2022-08-26T00:44:08.341Z,22.38
2022-08-26T00:46:46.608Z,21.98
2022-08-26T00:49:23.142Z,22.19
2022-08-26T00:51:53.631Z,22.07
2022-08-26T00:54:24.460Z,22.06
2022-08-26T00:57:02.447Z,22.34
2022-08-26T00:59:33.186Z,22.36
2022-08-26T01:02:02.875Z,22.15
2022-08-26T01:04:33.437Z,22.14
2022-08-26T01:07:01.344Z,21.83
2022-08-26T01:09:28.579Z,21.84
2022-08-26T01:12:00.347Z,21.93
2022-08-26T01:14:32.383Z,21.99
2022-08-26T01:17:03.148Z,22.08
2022-08-26T01:19:40.823Z,22.12
2022-08-26T01:22:14.097Z,22.18
2022-08-26T01:24:41.603Z,22.12
2022-08-26T01:27:12.349Z,22.15
2022-08-26T01:29:42.929Z,22.02
2022-08-26T01:32:14.473Z,21.83
2022-08-26T01:34:42.016Z,21.63
2022-08-26T01:37:15.960Z,21.93
2022-08-26T01:39:47.109Z,22.07
2022-08-26T01:42:15.862Z,21.98
2022-08-26T01:44:52.650Z,21.95
2022-08-26T01:47:23.442Z,22.07
2022-08-26T01:49:55.008Z,21.94
2022-08-26T01:52:27.998Z,21.72
2022-08-26T01:54:57.796Z,21.70
2022-08-26T01:57:26.261Z,21.78
2022-08-26T01:59:58.358Z,21.84
2022-08-26T02:02:26.218Z,21.59
2022-08-26T02:04:59.504Z,21.45
2022-08-26T02:07:28.047Z,21.53
2022-08-26T02:09:55.640Z,21.56
2022-08-26T02:12:23.145Z,21.51
2022-08-26T02:14:58.080Z,21.43
2022-08-26T02:17:41.983Z,21.37
2022-08-26T02:20:13.282Z,20.98
2022-08-26T02:22:42.956Z,20.76
2022-08-26T02:25:25.018Z,19.90
2022-08-26T02:27:52.733Z,19.62
2022-08-26T02:30:28.274Z,20.10
2022-08-26T02:32:55.645Z,20.25
2022-08-26T02:35:23.758Z,20.50
2022-08-26T02:37:52.363Z,20.35
2022-08-26T02:40:27.634Z,20.05
2022-08-26T02:43:08.488Z,20.29
2022-08-26T02:45:36.136Z,20.43
2022-08-26T02:48:17.008Z,20.55
2022-08-26T02:50:46.256Z,20.26
2022-08-26T02:53:13.507Z,20.58
2022-08-26T02:55:41.721Z,20.59
2022-08-26T02:58:09.761Z,20.49
2022-08-26T03:00:39.315Z,20.30
2022-08-26T03:03:20.725Z,20.28
2022-08-26T03:05:51.584Z,20.25
2022-08-26T03:08:19.409Z,20.51
2022-08-26T03:10:47.580Z,20.66
2022-08-26T03:13:15.612Z,20.65
2022-08-26T03:15:42.772Z,20.76
2022-08-26T03:18:11.003Z,20.53
2022-08-26T03:20:38.740Z,20.30
2022-08-26T03:23:06.534Z,20.64
2022-08-26T03:25:34.189Z,20.75
2022-08-26T03:28:02.301Z,20.77
2022-08-26T03:30:45.322Z,20.73
2022-08-26T03:35:41.979Z,20.85
2022-08-26T03:38:09.484Z,20.39
2022-08-26T03:40:37.444Z,20.33
2022-08-26T03:43:06.939Z,20.69
2022-08-26T03:45:37.918Z,20.51
2022-08-26T03:48:05.824Z,20.32
2022-08-26T03:50:34.233Z,20.19
2022-08-26T03:53:04.128Z,19.87
2022-08-26T03:55:32.992Z,19.89
2022-08-26T03:58:01.075Z,20.05
2022-08-26T04:00:28.631Z,20.22
2022-08-26T04:02:56.297Z,20.32
2022-08-26T04:05:23.744Z,20.34
2022-08-26T04:07:52.000Z,20.25
2022-08-26T04:10:28.977Z,19.83
2022-08-26T04:12:58.972Z,20.11
2022-08-26T04:15:27.084Z,20.15
2022-08-26T04:17:54.470Z,19.92
2022-08-26T04:20:23.227Z,19.98
2022-08-26T04:22:51.057Z,20.06
2022-08-26T04:25:18.633Z,20.00
2022-08-26T04:27:48.248Z,20.03
2022-08-26T04:30:15.866Z,20.14
2022-08-26T04:32:44.367Z,19.89
2022-08-26T04:35:11.606Z,20.10
2022-08-26T04:37:40.071Z,20.09
2022-08-26T04:40:11.043Z,20.23
2022-08-26T04:42:38.245Z,20.17
2022-08-26T04:45:06.099Z,20.31
2022-08-26T04:47:38.070Z,19.96
2022-08-26T04:50:06.880Z,19.71
2022-08-26T04:52:36.546Z,20.07
2022-08-26T04:55:08.322Z,19.92
2022-08-26T04:57:36.198Z,20.30
2022-08-26T05:00:08.927Z,20.47
2022-08-26T05:02:36.393Z,20.33
2022-08-26T05:05:05.209Z,20.49
2022-08-26T05:07:32.985Z,20.58
2022-08-26T05:10:00.257Z,20.78
2022-08-26T05:12:29.122Z,20.88
2022-08-26T05:14:56.292Z,20.84
2022-08-26T05:17:23.691Z,20.76
2022-08-26T05:19:50.851Z,20.88
2022-08-26T05:22:18.379Z,21.02
2022-08-26T05:24:46.485Z,21.09
2022-08-26T05:27:14.632Z,21.04
2022-08-26T05:29:42.368Z,20.79
2022-08-26T05:32:11.453Z,21.10
2022-08-26T05:34:38.590Z,21.26
2022-08-26T05:37:05.896Z,21.46
2022-08-26T05:39:33.687Z,21.59
2022-08-26T05:42:01.559Z,21.77
2022-08-26T05:44:29.406Z,21.88
2022-08-26T05:47:16.543Z,21.77
2022-08-26T05:49:45.161Z,21.28
2022-08-26T05:52:19.890Z,21.28
2022-08-26T05:54:47.647Z,21.59
2022-08-26T05:57:15.613Z,21.87
2022-08-26T05:59:42.745Z,21.18
2022-08-26T06:02:10.178Z,21.24
2022-08-26T06:04:37.265Z,21.12
2022-08-26T06:07:04.459Z,20.90
2022-08-26T06:09:36.961Z,20.77
2022-08-26T06:12:05.875Z,20.82
2022-08-26T06:14:33.037Z,20.97
2022-08-26T06:17:00.758Z,21.05
2022-08-26T06:19:33.043Z,21.28
2022-08-26T06:22:23.405Z,21.09
2022-08-26T06:25:09.160Z,21.28
2022-08-26T06:27:37.133Z,21.18
2022-08-26T06:30:04.792Z,21.08
2022-08-26T06:32:32.010Z,21.14
2022-08-26T06:34:59.308Z,21.21
2022-08-26T06:37:26.493Z,21.05
2022-08-26T06:39:53.644Z,21.26
2022-08-26T06:42:21.063Z,21.20
2022-08-26T06:44:49.210Z,21.47
2022-08-26T06:47:16.769Z,22.01
2022-08-26T06:49:44.327Z,21.75
2022-08-26T06:52:11.720Z,21.91
2022-08-26T06:54:43.085Z,21.46
2022-08-26T06:57:11.783Z,22.07
2022-08-26T06:59:39.453Z,22.13
2022-08-26T07:02:07.426Z,21.70
2022-08-26T07:04:35.710Z,21.85
2022-08-26T07:07:03.057Z,21.92
2022-08-26T07:09:33.019Z,21.74
2022-08-26T07:12:00.225Z,21.84
2022-08-26T07:14:27.413Z,22.04
2022-08-26T07:16:54.953Z,21.76
2022-08-26T07:19:31.185Z,21.66
2022-08-26T07:22:04.028Z,21.67
2022-08-26T07:24:34.999Z,21.64
2022-08-26T07:27:06.009Z,21.57
2022-08-26T07:29:33.984Z,21.72
2022-08-26T07:32:02.008Z,21.94
2022-08-26T07:34:29.422Z,21.90
2022-08-26T07:36:56.938Z,21.97
2022-08-26T07:39:25.105Z,22.00
2022-08-26T07:41:53.050Z,22.14
2022-08-26T07:44:20.933Z,22.40
2022-08-26T07:46:52.429Z,22.44
2022-08-26T07:49:25.080Z,22.26
2022-08-26T07:51:54.041Z,22.39
2022-08-26T07:54:26.671Z,22.34
2022-08-26T07:56:56.007Z,22.47
2022-08-26T07:59:23.610Z,22.38
2022-08-26T08:01:51.058Z,22.68
2022-08-26T08:04:21.900Z,22.77
2022-08-26T08:06:55.136Z,23.00
2022-08-26T08:09:22.853Z,23.20
2022-08-26T08:11:51.291Z,23.20
2022-08-26T08:14:22.221Z,23.24
2022-08-26T08:16:50.974Z,23.42
2022-08-26T08:19:23.034Z,23.77
2022-08-26T08:21:51.116Z,24.30
2022-08-26T08:24:18.838Z,24.36
2022-08-26T08:26:46.045Z,24.18
2022-08-26T08:29:13.235Z,24.15
2022-08-26T08:31:58.269Z,24.51
2022-08-26T08:34:28.349Z,24.17
2022-08-26T08:36:57.181Z,24.48
2022-08-26T08:39:26.241Z,24.44
2022-08-26T08:42:06.430Z,24.54
2022-08-26T08:44:37.700Z,24.32
2022-08-26T08:47:30.803Z,24.29
2022-08-26T08:50:03.447Z,24.65
2022-08-26T08:52:35.377Z,24.37
2022-08-26T08:55:10.366Z,24.11
2022-08-26T08:58:01.968Z,24.53
2022-08-26T09:00:45.060Z,24.49
2022-08-26T09:03:38.133Z,24.84
2022-08-26T09:06:16.917Z,24.58
2022-08-26T09:08:47.519Z,24.71
2022-08-26T09:11:19.809Z,24.68
2022-08-26T09:13:53.004Z,24.77
2022-08-26T09:16:43.783Z,24.90
2022-08-26T09:19:39.389Z,24.64
2022-08-26T09:22:09.283Z,24.67
2022-08-26T09:24:41.992Z,24.99
2022-08-26T09:27:36.533Z,25.31
2022-08-26T09:30:05.726Z,25.00
2022-08-26T09:32:35.123Z,24.55
2022-08-26T09:35:07.993Z,24.29
2022-08-26T09:37:36.876Z,24.85
2022-08-26T09:40:27.124Z,24.79
2022-08-26T09:43:14.054Z,24.70
2022-08-26T09:45:41.695Z,25.01
2022-08-26T09:48:26.130Z,24.96
2022-08-26T09:50:58.497Z,25.11
2022-08-26T09:53:30.552Z,25.19
2022-08-26T09:56:17.827Z,25.04
2022-08-26T09:58:47.140Z,24.94
2022-08-26T10:01:17.830Z,24.88
2022-08-26T10:03:47.027Z,24.98
2022-08-26T10:06:17.420Z,25.02
2022-08-26T10:08:49.148Z,25.16
2022-08-26T10:11:20.515Z,25.28
2022-08-26T10:13:54.162Z,25.09
2022-08-26T10:16:28.382Z,25.13
2022-08-26T10:19:08.194Z,25.05
2022-08-26T10:21:38.911Z,25.31
2022-08-26T10:24:07.328Z,25.00
2022-08-26T10:26:46.047Z,25.02
2022-08-26T10:29:19.814Z,25.06
2022-08-26T10:31:51.425Z,24.88
2022-08-26T10:34:19.076Z,25.34
2022-08-26T10:37:13.435Z,25.43
2022-08-26T10:39:57.287Z,25.51
2022-08-26T10:42:35.419Z,25.72
2022-08-26T10:45:07.545Z,26.13
2022-08-26T10:47:45.676Z,25.68
2022-08-26T10:50:12.783Z,25.85
2022-08-26T10:53:00.575Z,25.93
2022-08-26T10:55:28.699Z,25.72
2022-08-26T10:58:09.192Z,25.98
2022-08-26T11:01:10.293Z,26.04
2022-08-26T11:03:41.948Z,26.10
2022-08-26T11:06:18.147Z,25.84
2022-08-26T11:08:46.302Z,25.90
2022-08-26T11:11:33.943Z,25.87
2022-08-26T11:14:02.246Z,26.07
2022-08-26T11:16:34.611Z,25.90
2022-08-26T11:19:01.859Z,25.93
2022-08-26T11:21:47.713Z,26.01
2022-08-26T11:24:55.052Z,25.81
2022-08-26T11:27:37.199Z,25.89
2022-08-26T11:30:06.655Z,25.79
2022-08-26T11:32:34.554Z,26.38
2022-08-26T11:35:11.281Z,26.73
2022-08-26T11:37:41.234Z,26.60
2022-08-26T11:40:13.239Z,26.25
2022-08-26T11:42:46.299Z,26.77
2022-08-26T11:45:27.438Z,26.66
2022-08-26T11:47:54.806Z,26.49
2022-08-26T11:50:24.983Z,26.48
2022-08-26T11:52:53.346Z,26.84
2022-08-26T11:55:20.452Z,26.86
2022-08-26T11:57:54.820Z,26.97
2022-08-26T12:00:33.542Z,27.07
2022-08-26T12:03:02.466Z,27.10
2022-08-26T12:05:31.530Z,27.25
2022-08-26T12:08:01.040Z,27.23
2022-08-26T12:10:30.251Z,26.99
2022-08-26T12:12:58.673Z,27.55
2022-08-26T12:15:26.824Z,27.06
2022-08-26T12:17:56.961Z,27.44
2022-08-26T12:20:48.452Z,27.44
2022-08-26T12:23:26.876Z,27.42
2022-08-26T12:26:02.708Z,27.84
2022-08-26T12:28:30.974Z,27.47
2022-08-26T12:30:58.428Z,27.93
2022-08-26T12:33:28.464Z,28.16
2022-08-26T12:35:56.939Z,27.74
2022-08-26T12:38:25.317Z,28.16
2022-08-26T12:40:52.963Z,28.20
2022-08-26T12:43:36.540Z,28.33
2022-08-26T12:46:04.617Z,27.75
2022-08-26T12:48:36.101Z,27.18
2022-08-26T12:51:03.399Z,27.40
2022-08-26T12:53:33.145Z,27.53
2022-08-26T12:56:03.406Z,27.52
2022-08-26T12:58:35.044Z,27.24
2022-08-26T13:01:05.252Z,27.39
2022-08-26T13:03:35.037Z,27.33
2022-08-26T13:06:31.322Z,28.21
2022-08-26T13:08:58.297Z,27.91
2022-08-26T13:11:27.910Z,28.33
2022-08-26T13:13:56.973Z,28.56
2022-08-26T13:16:24.421Z,28.55
2022-08-26T13:18:53.013Z,28.68
2022-08-26T13:21:21.796Z,29.04
2022-08-26T13:23:49.626Z,28.35
2022-08-26T13:26:16.877Z,28.26
2022-08-26T13:28:43.779Z,28.72
2022-08-26T13:31:12.176Z,28.61
2022-08-26T13:33:39.779Z,29.37
2022-08-26T13:36:06.987Z,28.58
2022-08-26T13:38:34.174Z,28.83
2022-08-26T13:41:02.575Z,29.16
2022-08-26T13:43:30.342Z,28.79
2022-08-26T13:45:57.603Z,29.29
2022-08-26T13:48:24.470Z,29.36
2022-08-26T13:50:52.112Z,29.19
2022-08-26T13:53:19.100Z,29.19
2022-08-26T13:55:46.212Z,29.26
2022-08-26T13:58:13.696Z,28.38
2022-08-26T14:00:41.691Z,29.29
2022-08-26T14:03:13.256Z,28.77
2022-08-26T14:05:40.769Z,28.57
2022-08-26T14:08:08.051Z,29.06
2022-08-26T14:10:35.493Z,29.01
2022-08-26T14:13:02.670Z,28.06
2022-08-26T14:15:35.878Z,28.11
2022-08-26T14:18:03.926Z,28.16
2022-08-26T14:20:31.963Z,28.84
2022-08-26T14:23:14.664Z,28.70
2022-08-26T14:25:42.225Z,29.30
2022-08-26T14:28:09.088Z,28.89
2022-08-26T14:30:36.926Z,28.59
2022-08-26T14:33:03.902Z,28.20
2022-08-26T14:35:31.020Z,28.15
2022-08-26T14:37:57.987Z,27.60
2022-08-26T14:40:28.509Z,27.16
2022-08-26T14:42:55.667Z,27.23
2022-08-26T14:45:26.843Z,27.23
2022-08-26T14:47:56.392Z,27.55
2022-08-26T14:50:24.619Z,28.54
2022-08-26T14:53:10.693Z,29.32
2022-08-26T14:55:40.273Z,28.95
2022-08-26T14:58:07.381Z,29.14
2022-08-26T15:00:34.727Z,27.78
2022-08-26T15:03:01.924Z,28.33
2022-08-26T15:05:28.941Z,27.73
2022-08-26T15:07:55.842Z,27.22
2022-08-26T15:10:22.856Z,27.35
2022-08-26T15:12:49.747Z,27.57
2022-08-26T15:15:17.614Z,27.24
2022-08-26T15:17:44.711Z,27.86
2022-08-26T15:20:12.110Z,27.19
2022-08-26T15:22:39.706Z,26.84
2022-08-26T15:25:07.543Z,25.76
2022-08-26T15:27:34.508Z,26.34
2022-08-26T15:30:02.152Z,26.90
2022-08-26T15:32:30.586Z,27.29
2022-08-26T15:34:57.719Z,26.65
2022-08-26T15:37:24.629Z,26.77
2022-08-26T15:39:52.857Z,25.91
2022-08-26T15:42:20.868Z,25.77
2022-08-26T15:44:47.860Z,25.08
2022-08-26T15:47:14.795Z,25.26
2022-08-26T15:49:41.754Z,25.31
2022-08-26T15:52:09.294Z,25.22
2022-08-26T15:54:36.205Z,24.71
2022-08-26T15:57:04.074Z,24.79
2022-08-26T15:59:32.305Z,24.78
2022-08-26T16:02:00.039Z,24.30
2022-08-26T16:04:27.294Z,24.27
2022-08-26T16:06:54.712Z,24.18
2022-08-26T16:09:24.303Z,24.22
2022-08-26T16:11:52.564Z,23.93
2022-08-26T16:14:19.430Z,24.09
2022-08-26T16:16:47.062Z,24.12
2022-08-26T16:19:13.904Z,23.96
2022-08-26T16:21:41.480Z,23.88
2022-08-26T16:24:08.469Z,23.84
2022-08-26T16:26:37.036Z,23.68
2022-08-26T16:29:06.332Z,23.67
2022-08-26T16:31:33.445Z,23.68
2022-08-26T16:34:00.362Z,23.55
2022-08-26T16:36:27.354Z,23.55
2022-08-26T16:38:56.105Z,23.40
2022-08-26T16:41:27.507Z,23.17
2022-08-26T16:43:54.873Z,22.96
2022-08-26T16:46:25.380Z,22.62
2022-08-26T16:48:53.424Z,22.55
2022-08-26T16:51:22.919Z,22.53
2022-08-26T16:53:50.473Z,22.50
2022-08-26T16:56:18.618Z,22.30
2022-08-26T16:58:48.079Z,22.38
2022-08-26T17:01:15.682Z,22.42
2022-08-26T17:03:42.926Z,22.34
2022-08-26T17:06:10.074Z,22.27
2022-08-26T17:08:37.943Z,22.21
2022-08-26T17:11:05.395Z,22.07
2022-08-26T17:13:35.516Z,21.91
2022-08-26T17:16:04.783Z,21.68
2022-08-26T17:18:33.252Z,21.99
2022-08-26T17:21:04.718Z,21.85
2022-08-26T17:23:31.671Z,21.64
2022-08-26T17:25:58.557Z,21.48
2022-08-26T17:28:25.454Z,21.65
2022-08-26T17:30:52.445Z,21.65
2022-08-26T17:33:22.139Z,21.46
2022-08-26T17:35:53.104Z,21.65
2022-08-26T17:38:21.130Z,21.62
2022-08-26T17:40:48.170Z,21.66
2022-08-26T17:43:15.453Z,21.55
2022-08-26T17:45:43.558Z,21.46
2022-08-26T17:48:11.102Z,21.26
2022-08-26T17:50:39.211Z,21.48
2022-08-26T17:53:06.077Z,21.34
2022-08-26T17:55:32.950Z,21.55
2022-08-26T17:58:00.120Z,21.30
2022-08-26T18:00:30.942Z,21.25
2022-08-26T18:02:58.172Z,21.44
2022-08-26T18:05:25.120Z,21.49
2022-08-26T18:07:52.858Z,21.21
2022-08-26T18:10:20.296Z,21.19
2022-08-26T18:12:47.556Z,21.01
2022-08-26T18:15:15.776Z,20.96
2022-08-26T18:17:42.894Z,20.57
2022-08-26T18:20:10.999Z,20.79
2022-08-26T18:22:37.993Z,20.82
2022-08-26T18:25:05.506Z,20.74
2022-08-26T18:27:32.402Z,20.76
2022-08-26T18:29:59.284Z,20.61
2022-08-26T18:32:26.142Z,20.76
2022-08-26T18:34:53.150Z,20.53
2022-08-26T18:37:20.002Z,20.39
2022-08-26T18:39:46.934Z,20.40
2022-08-26T18:42:14.104Z,20.37
2022-08-26T18:44:40.989Z,20.37
2022-08-26T18:47:07.934Z,20.22
2022-08-26T18:49:34.864Z,20.39
2022-08-26T18:52:01.846Z,20.09
2022-08-26T18:54:29.931Z,20.21
2022-08-26T18:56:56.772Z,20.18
2022-08-26T18:59:28.414Z,20.24
2022-08-26T19:01:58.049Z,20.24
2022-08-26T19:04:25.132Z,20.29
2022-08-26T19:06:52.776Z,20.28
2022-08-26T19:09:20.323Z,20.33
2022-08-26T19:11:49.598Z,20.36
2022-08-26T19:14:16.860Z,20.51
2022-08-26T19:16:45.598Z,20.35
2022-08-26T19:19:12.622Z,20.18
2022-08-26T19:21:39.524Z,20.33
2022-08-26T19:24:09.211Z,20.16
2022-08-26T19:26:36.515Z,20.17
2022-08-26T19:29:03.887Z,20.07
2022-08-26T19:31:31.195Z,20.14
2022-08-26T19:33:58.954Z,20.10
2022-08-26T19:36:27.166Z,20.22
2022-08-26T19:38:55.755Z,20.15
2022-08-26T19:41:29.024Z,19.99
2022-08-26T19:44:12.910Z,19.80
2022-08-26T19:46:40.510Z,19.90
2022-08-26T19:49:07.415Z,19.83
2022-08-26T19:51:35.197Z,19.89
2022-08-26T19:54:02.514Z,19.75
2022-08-26T19:56:29.545Z,19.89
2022-08-26T19:58:56.593Z,19.83
2022-08-26T20:01:24.143Z,19.73
2022-08-26T20:03:51.197Z,19.56
2022-08-26T20:06:18.512Z,19.57
2022-08-26T20:08:45.842Z,19.58
2022-08-26T20:11:14.491Z,19.65
2022-08-26T20:13:41.473Z,19.75
2022-08-26T20:16:10.245Z,19.66
2022-08-26T20:18:56.270Z,19.68
2022-08-26T20:21:26.227Z,19.81
2022-08-26T20:23:54.402Z,19.62
2022-08-26T20:26:21.292Z,19.58
2022-08-26T20:28:48.154Z,19.40
2022-08-26T20:31:19.341Z,19.10
2022-08-26T20:33:46.762Z,19.03
2022-08-26T20:36:14.835Z,18.88
2022-08-26T20:38:41.972Z,18.57
2022-08-26T20:41:09.041Z,18.60
2022-08-26T20:43:36.593Z,18.87
2022-08-26T20:46:03.654Z,18.88
2022-08-26T20:48:35.250Z,18.87
2022-08-26T20:51:02.196Z,18.79
2022-08-26T20:53:29.735Z,18.90
2022-08-26T20:56:04.848Z,18.76
2022-08-26T20:58:31.896Z,18.78
2022-08-26T21:00:58.833Z,18.76
2022-08-26T21:03:26.612Z,18.81
2022-08-26T21:05:54.265Z,18.73
2022-08-26T21:08:21.173Z,18.83
2022-08-26T21:10:50.289Z,18.93
2022-08-26T21:13:19.229Z,18.97
2022-08-26T21:15:46.261Z,18.95
2022-08-26T21:18:13.191Z,18.93
2022-08-26T21:20:40.110Z,19.01
2022-08-26T21:23:07.062Z,18.83
2022-08-26T21:25:33.929Z,18.79
2022-08-26T21:28:00.851Z,18.79
2022-08-26T21:30:27.805Z,18.71
2022-08-26T21:32:54.694Z,18.64
2022-08-26T21:35:21.617Z,18.71
2022-08-26T21:37:48.674Z,18.76
2022-08-26T21:40:15.645Z,18.81
2022-08-26T21:42:42.581Z,18.80
2022-08-26T21:45:09.968Z,18.84
2022-08-26T21:47:36.980Z,18.85
2022-08-26T21:50:04.040Z,19.01
2022-08-26T21:52:31.108Z,18.91
2022-08-26T21:54:59.029Z,18.73
2022-08-26T21:57:26.717Z,18.72
2022-08-26T21:59:53.948Z,18.87
2022-08-26T22:02:21.333Z,18.83
2022-08-26T22:04:49.221Z,18.99
2022-08-26T22:07:17.219Z,18.80
2022-08-26T22:09:44.499Z,18.62
2022-08-26T22:12:12.444Z,18.89
2022-08-26T22:14:39.724Z,18.82
2022-08-26T22:17:06.761Z,18.84
2022-08-26T22:19:34.482Z,18.80
2022-08-26T22:22:13.408Z,18.84
2022-08-26T22:24:40.325Z,18.90
2022-08-26T22:27:07.294Z,18.95
2022-08-26T22:29:34.247Z,18.94
2022-08-26T22:32:01.472Z,18.86
2022-08-26T22:34:28.462Z,18.69
2022-08-26T22:36:55.482Z,18.66
2022-08-26T22:39:24.091Z,18.79
2022-08-26T22:41:52.069Z,18.72
2022-08-26T22:44:20.419Z,18.69
2022-08-26T22:46:47.900Z,18.62
2022-08-26T22:49:17.743Z,18.48
2022-08-26T22:51:44.937Z,18.43
2022-08-26T22:54:12.230Z,18.32
2022-08-26T22:56:39.471Z,18.46
2022-08-26T22:59:07.815Z,18.54
2022-08-26T23:01:36.319Z,18.21
2022-08-26T23:04:03.875Z,18.09
2022-08-26T23:06:30.796Z,17.89
2022-08-26T23:08:57.931Z,17.77
2022-08-26T23:11:24.848Z,17.99
2022-08-26T23:13:51.753Z,18.19
2022-08-26T23:16:18.851Z,18.34
2022-08-26T23:18:45.778Z,18.43
2022-08-26T23:21:12.729Z,18.27
2022-08-26T23:23:39.600Z,18.27
2022-08-26T23:26:07.723Z,18.24
2022-08-26T23:28:35.866Z,18.15
2022-08-26T23:31:02.995Z,17.97
2022-08-26T23:33:49.822Z,18.05
2022-08-26T23:36:18.350Z,18.03
2022-08-26T23:38:52.910Z,18.13
2022-08-26T23:41:21.322Z,18.28
2022-08-26T23:43:48.909Z,18.28
2022-08-26T23:46:15.867Z,18.10
2022-08-26T23:48:42.954Z,18.19
2022-08-26T23:51:29.156Z,18.13
2022-08-26T23:53:56.782Z,18.01
2022-08-26T23:56:23.784Z,18.05
2022-08-26T23:58:51.329Z,18.00
